createdAt,value
2023-01-10T00:02:12.408Z,15.20
2023-01-10T00:04:40.734Z,14.58
2023-01-10T00:07:08.931Z,15.00
2023-01-10T00:09:38.202Z,17.00
2023-01-10T00:12:31.191Z,13.90
2023-01-10T00:15:05.937Z,15.45
2023-01-10T00:17:34.343Z,15.65
2023-01-10T00:20:22.867Z,13.80
2023-01-10T00:22:52.003Z,14.07
2023-01-10T00:25:20.971Z,13.38
2023-01-10T00:27:51.466Z,15.95
2023-01-10T00:30:19.797Z,15.10
2023-01-10T00:32:54.756Z,14.95
2023-01-10T00:35:23.481Z,14.30
2023-01-10T00:37:53.495Z,15.58
2023-01-10T00:40:21.712Z,14.15
2023-01-10T00:43:08.253Z,14.63
2023-01-10T00:45:36.543Z,17.82
2023-01-10T00:48:07.229Z,14.05
2023-01-10T00:50:43.376Z,15.53
2023-01-10T00:53:17.758Z,16.32
2023-01-10T00:55:49.479Z,15.10
2023-01-10T00:58:17.939Z,12.63
2023-01-10T01:00:46.536Z,13.68
2023-01-10T01:03:15.239Z,11.85
2023-01-10T01:05:45.644Z,12.50
2023-01-10T01:08:16.409Z,14.07
2023-01-10T01:10:44.733Z,13.15
2023-01-10T01:13:20.162Z,12.65
2023-01-10T01:15:48.796Z,14.63
2023-01-10T01:18:21.192Z,14.85
2023-01-10T01:20:59.827Z,11.73
2023-01-10T01:23:28.684Z,14.40
2023-01-10T01:25:57.755Z,13.75
2023-01-10T01:28:26.888Z,13.20
2023-01-10T01:30:55.127Z,14.45
2023-01-10T01:33:23.931Z,16.95
2023-01-10T01:35:52.069Z,15.35
2023-01-10T01:38:20.178Z,16.35
2023-01-10T01:40:48.198Z,14.13
2023-01-10T01:43:25.681Z,13.20
2023-01-10T01:45:55.276Z,11.38
2023-01-10T01:48:39.513Z,15.18
2023-01-10T01:51:18.083Z,13.70
2023-01-10T01:53:54.367Z,13.55
2023-01-10T01:56:48.161Z,12.05
2023-01-10T01:59:21.517Z,13.15
2023-01-10T02:04:33.905Z,16.82
2023-01-10T02:07:02.110Z,15.45
2023-01-10T02:09:50.787Z,12.50
2023-01-10T02:12:28.453Z,12.18
2023-01-10T02:15:04.430Z,13.13
2023-01-10T02:17:44.687Z,12.68
2023-01-10T02:20:18.863Z,14.20
2023-01-10T02:23:24.584Z,14.53
2023-01-10T02:26:16.829Z,15.93
2023-01-10T02:35:52.197Z,14.00
2023-01-10T02:38:47.447Z,15.70
2023-01-10T02:41:49.777Z,15.72
2023-01-10T02:44:46.418Z,13.60
2023-01-10T02:47:26.873Z,12.58
2023-01-10T02:52:32.680Z,13.43
2023-01-10T02:55:03.506Z,17.20
2023-01-10T02:57:39.781Z,13.93
2023-01-10T03:00:28.803Z,11.88
2023-01-10T03:03:14.451Z,14.68
2023-01-10T03:06:13.391Z,12.70
2023-01-10T03:08:55.251Z,13.15
2023-01-10T03:11:29.591Z,13.25
2023-01-10T03:14:00.495Z,15.17
2023-01-10T03:16:31.521Z,11.83
2023-01-10T03:19:20.692Z,16.15
2023-01-10T03:21:52.545Z,16.17
2023-01-10T03:24:25.206Z,17.25
2023-01-10T03:27:13.765Z,16.35
2023-01-10T03:30:02.340Z,13.32
2023-01-10T03:32:32.384Z,15.00
2023-01-10T03:35:02.602Z,13.13
2023-01-10T03:37:59.641Z,13.55
2023-01-10T03:40:43.431Z,15.03
2023-01-10T03:43:44.460Z,13.65
2023-01-10T03:46:21.561Z,12.70
2023-01-10T03:48:51.623Z,12.45
2023-01-10T03:51:20.529Z,14.03
2023-01-10T03:53:48.744Z,16.52
2023-01-10T03:56:16.925Z,17.45
2023-01-10T03:58:47.058Z,16.07
2023-01-10T04:01:15.952Z,20.62
2023-01-10T04:03:46.072Z,18.48
2023-01-10T04:06:14.397Z,17.75
2023-01-10T04:08:42.624Z,12.50
2023-01-10T04:11:10.914Z,14.28
2023-01-10T04:13:40.875Z,12.25
2023-01-10T04:16:09.265Z,10.63
2023-01-10T04:18:37.354Z,10.72
2023-01-10T04:21:06.496Z,10.13
2023-01-10T04:23:34.538Z,11.40
2023-01-10T04:26:02.613Z,11.10
2023-01-10T04:28:30.521Z,13.78
2023-01-10T04:30:58.698Z,11.70
2023-01-10T04:33:28.178Z,10.85
2023-01-10T04:35:56.263Z,11.70
2023-01-10T04:38:24.212Z,11.43
2023-01-10T04:40:54.733Z,10.78
2023-01-10T04:43:25.066Z,11.88
2023-01-10T04:45:53.320Z,11.30
2023-01-10T04:48:21.546Z,13.00
2023-01-10T04:50:53.166Z,11.73
2023-01-10T04:53:21.985Z,12.18
2023-01-10T04:55:49.960Z,16.62
2023-01-10T04:58:18.234Z,16.00
2023-01-10T05:00:46.301Z,16.67
2023-01-10T05:03:19.434Z,15.38
2023-01-10T05:05:47.749Z,13.85
2023-01-10T05:08:32.051Z,12.18
2023-01-10T05:11:05.279Z,13.35
2023-01-10T05:13:53.060Z,10.85
2023-01-10T05:16:29.154Z,11.05
2023-01-10T05:18:58.534Z,12.35
2023-01-10T05:21:44.874Z,11.83
2023-01-10T05:24:30.773Z,12.50
2023-01-10T05:27:06.224Z,11.83
2023-01-10T05:29:38.363Z,12.93
2023-01-10T05:32:06.860Z,14.23
2023-01-10T05:34:35.239Z,12.75
2023-01-10T05:37:03.728Z,12.07
2023-01-10T05:39:32.109Z,13.90
2023-01-10T05:42:00.677Z,11.90
2023-01-10T05:44:28.109Z,11.05
2023-01-10T05:46:56.015Z,14.50
2023-01-10T05:49:23.875Z,13.70
2023-01-10T05:51:51.745Z,12.98
2023-01-10T05:54:19.572Z,12.03
2023-01-10T05:56:47.280Z,15.55
2023-01-10T05:59:27.461Z,19.00
2023-01-10T06:01:44.495Z,22.55
2023-01-10T06:04:12.335Z,21.77
2023-01-10T06:06:40.189Z,18.90
2023-01-10T06:09:07.877Z,14.95
2023-01-10T06:11:37.711Z,17.82
2023-01-10T06:14:07.266Z,17.50
2023-01-10T06:16:35.059Z,14.25
2023-01-10T06:19:02.942Z,25.30
2023-01-10T06:21:30.711Z,24.55
2023-01-10T06:23:58.576Z,29.27
2023-01-10T06:26:26.420Z,32.78
2023-01-10T06:28:54.362Z,23.50
2023-01-10T06:31:22.783Z,26.93
2023-01-10T06:33:51.432Z,21.97
2023-01-10T06:36:19.765Z,26.02
2023-01-10T06:38:47.953Z,24.52
2023-01-10T06:41:15.675Z,22.65
2023-01-10T06:43:45.840Z,23.45
2023-01-10T06:46:19.083Z,18.37
2023-01-10T06:48:47.808Z,15.48
2023-01-10T06:51:19.162Z,16.15
2023-01-10T06:53:46.501Z,20.08
2023-01-10T06:56:14.288Z,14.93
2023-01-10T06:58:42.017Z,17.73
2023-01-10T07:01:19.593Z,17.17
2023-01-10T07:03:48.353Z,15.15
2023-01-10T07:06:16.338Z,54.35
2023-01-10T07:08:45.918Z,91.17
2023-01-10T07:11:16.542Z,106.78
2023-01-10T07:13:44.566Z,85.05
2023-01-10T07:16:15.591Z,39.55
2023-01-10T07:18:43.673Z,24.05
2023-01-10T07:21:12.138Z,22.95
2023-01-10T07:23:40.307Z,24.85
2023-01-10T07:26:11.200Z,18.80
2023-01-10T07:28:38.791Z,19.70
2023-01-10T07:31:06.583Z,22.25
2023-01-10T07:33:34.347Z,19.92
2023-01-10T07:36:03.371Z,22.87
2023-01-10T07:38:31.154Z,23.07
2023-01-10T07:41:04.448Z,19.37
2023-01-10T07:43:33.469Z,18.90
2023-01-10T07:46:04.112Z,19.67
2023-01-10T07:48:31.827Z,17.32
2023-01-10T07:51:01.342Z,17.98
2023-01-10T07:53:29.393Z,26.90
2023-01-10T07:56:02.683Z,17.92
2023-01-10T07:58:31.147Z,18.95
2023-01-10T08:01:01.950Z,15.00
2023-01-10T08:03:30.323Z,18.75
2023-01-10T08:06:04.367Z,24.40
2023-01-10T08:08:34.004Z,17.87
2023-01-10T08:11:02.269Z,18.75
2023-01-10T08:13:31.483Z,15.83
2023-01-10T08:15:59.691Z,18.77
2023-01-10T08:18:27.675Z,15.28
2023-01-10T08:20:55.589Z,12.43
2023-01-10T08:23:23.547Z,16.52
2023-01-10T08:25:53.975Z,16.45
2023-01-10T08:28:21.691Z,18.73
2023-01-10T08:30:51.575Z,20.77
2023-01-10T08:33:19.292Z,20.97
2023-01-10T08:35:47.196Z,19.92
2023-01-10T08:38:15.877Z,15.40
2023-01-10T08:40:43.537Z,15.80
2023-01-10T08:43:12.461Z,14.58
2023-01-10T08:45:42.092Z,14.05
2023-01-10T08:48:10.297Z,12.93
2023-01-10T08:50:38.187Z,15.25
2023-01-10T08:53:05.941Z,14.78
2023-01-10T08:55:36.800Z,12.05
2023-01-10T08:58:04.566Z,11.85
2023-01-10T09:00:32.406Z,9.63
2023-01-10T09:03:00.535Z,11.75
2023-01-10T09:05:28.703Z,14.73
2023-01-10T09:08:02.082Z,17.52
2023-01-10T09:10:31.653Z,20.08
2023-01-10T09:13:01.103Z,17.32
2023-01-10T09:15:35.208Z,20.85
2023-01-10T09:18:07.101Z,23.35
2023-01-10T09:20:37.862Z,34.70
2023-01-10T09:23:09.393Z,30.37
2023-01-10T09:25:37.972Z,28.30
2023-01-10T09:28:06.738Z,25.15
2023-01-10T09:30:34.836Z,29.95
2023-01-10T09:33:04.837Z,28.57
2023-01-10T09:35:35.640Z,24.82
2023-01-10T09:38:06.119Z,29.32
2023-01-10T09:41:12.422Z,24.12
2023-01-10T09:46:53.703Z,34.73
2023-01-10T09:49:48.919Z,21.85
2023-01-10T09:52:27.676Z,19.32
2023-01-10T09:54:58.655Z,29.10
2023-01-10T09:57:26.433Z,19.00
2023-01-10T09:59:54.277Z,23.83
2023-01-10T10:02:34.943Z,20.77
2023-01-10T10:05:20.169Z,20.75
2023-01-10T10:07:56.142Z,21.35
2023-01-10T10:10:33.276Z,20.15
2023-01-10T10:13:37.748Z,19.20
2023-01-10T10:16:46.863Z,24.02
2023-01-10T10:20:02.763Z,16.32
2023-01-10T10:23:03.597Z,16.60
2023-01-10T10:25:57.009Z,22.27
2023-01-10T10:28:56.375Z,17.77
2023-01-10T10:31:52.564Z,15.30
2023-01-10T10:34:37.378Z,16.73
2023-01-10T10:37:33.242Z,17.70
2023-01-10T10:40:22.328Z,17.10
2023-01-10T10:42:53.584Z,14.93
2023-01-10T10:45:29.440Z,12.47
2023-01-10T10:48:05.650Z,13.28
2023-01-10T10:50:35.692Z,18.98
2023-01-10T10:53:04.773Z,15.00
2023-01-10T10:55:37.066Z,64.75
2023-01-10T10:58:08.277Z,20.90
2023-01-10T11:00:48.853Z,18.10
2023-01-10T11:03:49.583Z,17.70
2023-01-10T11:06:19.776Z,19.55
2023-01-10T11:08:52.486Z,17.77
2023-01-10T11:11:37.046Z,14.03
2023-01-10T11:14:08.529Z,12.10
2023-01-10T11:16:44.399Z,14.80
2023-01-10T11:19:24.902Z,19.20
2023-01-10T11:22:02.525Z,16.60
2023-01-10T11:24:40.593Z,9.65
2023-01-10T11:27:18.505Z,10.25
2023-01-10T11:29:50.504Z,13.85
2023-01-10T11:32:22.994Z,9.68
2023-01-10T11:35:01.426Z,13.68
2023-01-10T11:37:32.921Z,10.80
2023-01-10T11:40:25.653Z,20.43
2023-01-10T11:43:06.843Z,8.60
2023-01-10T11:46:06.807Z,10.32
2023-01-10T11:49:08.631Z,13.05
2023-01-10T11:51:34.674Z,10.23
2023-01-10T11:54:15.051Z,13.65
2023-01-10T11:57:00.237Z,13.80
2023-01-10T11:59:28.868Z,19.10
2023-01-10T12:02:22.791Z,18.92
2023-01-10T12:04:52.752Z,11.85
2023-01-10T12:07:23.787Z,15.43
2023-01-10T12:10:03.415Z,10.95
2023-01-10T12:12:38.053Z,9.85
2023-01-10T12:15:30.425Z,8.98
2023-01-10T12:18:05.320Z,10.78
2023-01-10T12:20:38.635Z,14.43
2023-01-10T12:23:14.708Z,11.38
2023-01-10T12:25:45.157Z,14.70
2023-01-10T12:28:23.504Z,10.00
2023-01-10T12:30:55.818Z,12.68
2023-01-10T12:33:34.993Z,13.88
2023-01-10T12:36:25.577Z,28.87
2023-01-10T12:39:23.096Z,15.18
2023-01-10T12:42:30.269Z,18.17
2023-01-10T12:45:10.072Z,16.90
2023-01-10T12:48:07.450Z,17.20
2023-01-10T12:50:53.127Z,18.20
2023-01-10T12:56:08.664Z,13.45
2023-01-10T12:58:51.832Z,13.35
2023-01-10T13:01:27.964Z,15.25
2023-01-10T13:04:06.223Z,16.70
2023-01-10T13:06:37.881Z,26.35
2023-01-10T13:09:27.804Z,14.58
2023-01-10T13:12:12.269Z,11.38
2023-01-10T13:15:13.145Z,17.92
2023-01-10T13:17:48.206Z,13.18
2023-01-10T13:20:26.375Z,18.80
2023-01-10T13:23:00.792Z,16.93
2023-01-10T13:25:34.549Z,15.93
2023-01-10T13:28:28.149Z,16.97
2023-01-10T13:31:00.970Z,11.75
2023-01-10T13:33:33.013Z,15.23
2023-01-10T13:36:14.965Z,13.13
2023-01-10T13:38:50.988Z,16.17
2023-01-10T13:41:37.920Z,19.42
2023-01-10T13:44:11.191Z,17.77
2023-01-10T13:46:51.805Z,18.57
2023-01-10T13:49:40.100Z,15.32
2023-01-10T13:52:29.792Z,15.95
2023-01-10T13:55:03.298Z,17.65
2023-01-10T13:57:55.983Z,20.15
2023-01-10T14:00:53.489Z,16.42
2023-01-10T14:03:53.144Z,21.68
2023-01-10T14:06:36.903Z,19.32
2023-01-10T14:09:28.913Z,19.67
2023-01-10T14:23:18.221Z,18.35
2023-01-10T14:25:55.319Z,19.30
2023-01-10T14:28:28.210Z,25.30
2023-01-10T14:31:21.809Z,23.30
2023-01-10T14:33:50.497Z,16.40
2023-01-10T14:36:34.043Z,15.43
2023-01-10T14:39:06.768Z,20.95
2023-01-10T14:41:43.548Z,19.12
2023-01-10T14:44:32.943Z,14.00
2023-01-10T14:47:04.089Z,15.15
2023-01-10T14:49:50.796Z,21.35
2023-01-10T14:52:22.261Z,16.67
2023-01-10T14:55:22.221Z,18.87
2023-01-10T14:58:01.751Z,24.00
2023-01-10T15:00:33.825Z,23.65
2023-01-10T15:03:04.408Z,25.57
2023-01-10T15:05:40.604Z,16.82
2023-01-10T15:08:25.111Z,13.90
2023-01-10T15:11:01.684Z,15.83
2023-01-10T15:13:35.251Z,18.75
2023-01-10T15:16:07.485Z,21.33
2023-01-10T15:18:43.402Z,15.72
2023-01-10T15:21:14.322Z,22.02
2023-01-10T15:23:45.940Z,22.90
2023-01-10T15:26:30.217Z,29.48
2023-01-10T15:29:16.525Z,23.55
2023-01-10T15:31:44.721Z,21.10
2023-01-10T15:34:22.461Z,24.57
2023-01-10T15:36:57.309Z,32.98
2023-01-10T15:39:32.823Z,27.13
2023-01-10T15:42:09.165Z,24.37
2023-01-10T15:44:44.745Z,23.87
2023-01-10T15:50:28.872Z,26.85
2023-01-10T15:53:00.800Z,27.22
2023-01-10T15:55:46.645Z,28.50
2023-01-10T15:58:30.684Z,30.17
2023-01-10T16:01:01.452Z,25.05
2023-01-10T16:03:36.928Z,27.35
2023-01-10T16:06:08.407Z,24.67
2023-01-10T16:08:38.643Z,27.00
2023-01-10T16:11:11.982Z,23.38
2023-01-10T16:13:41.058Z,25.90
2023-01-10T16:16:14.424Z,23.83
2023-01-10T16:18:42.241Z,24.82
2023-01-10T16:21:11.412Z,25.52
2023-01-10T16:23:43.659Z,28.52
2023-01-10T16:26:19.758Z,20.00
2023-01-10T16:28:47.759Z,21.23
2023-01-10T16:31:15.506Z,18.37
2023-01-10T16:33:44.978Z,21.37
2023-01-10T16:36:19.643Z,22.25
2023-01-10T16:38:47.840Z,24.98
2023-01-10T16:41:35.088Z,32.55
2023-01-10T16:44:02.970Z,20.15
2023-01-10T16:46:31.736Z,18.05
2023-01-10T16:48:59.987Z,17.75
2023-01-10T16:51:31.815Z,21.17
2023-01-10T16:54:00.860Z,21.97
2023-01-10T16:56:30.127Z,17.67
2023-01-10T16:58:59.348Z,29.12
2023-01-10T17:01:35.904Z,27.27
2023-01-10T17:04:29.540Z,24.23
2023-01-10T17:06:58.853Z,24.07
2023-01-10T17:09:29.882Z,20.52
2023-01-10T17:12:18.616Z,33.48
2023-01-10T17:14:50.812Z,21.25
2023-01-10T17:17:31.811Z,19.02
2023-01-10T17:20:00.662Z,16.90
2023-01-10T17:22:30.489Z,14.78
2023-01-10T17:24:58.535Z,15.88
2023-01-10T17:27:26.606Z,20.48
2023-01-10T17:29:54.525Z,20.20
2023-01-10T17:32:22.537Z,14.68
2023-01-10T17:34:55.249Z,15.18
2023-01-10T17:37:23.104Z,15.78
2023-01-10T17:39:50.825Z,16.50
2023-01-10T17:42:19.858Z,14.20
2023-01-10T17:44:49.259Z,15.00
2023-01-10T17:47:17.724Z,13.43
2023-01-10T17:49:49.480Z,13.35
2023-01-10T17:52:17.803Z,15.28
2023-01-10T17:54:52.742Z,15.18
2023-01-10T17:57:21.090Z,14.83
2023-01-10T18:03:45.744Z,14.73
2023-01-10T18:07:03.315Z,15.23
2023-01-10T18:10:04.671Z,15.08
2023-01-10T18:12:40.089Z,15.72
2023-01-10T18:15:11.227Z,14.20
2023-01-10T18:24:09.990Z,17.50
2023-01-10T18:26:37.996Z,21.97
2023-01-10T18:29:05.957Z,21.80
2023-01-10T18:31:34.899Z,19.17
2023-01-10T18:34:02.844Z,17.15
2023-01-10T18:36:38.698Z,21.02
2023-01-10T18:39:06.497Z,18.82
2023-01-10T18:41:34.525Z,17.23
2023-01-10T18:44:02.623Z,19.30
2023-01-10T18:46:31.930Z,17.50
2023-01-10T18:49:00.274Z,18.05
2023-01-10T18:51:28.253Z,18.32
2023-01-10T18:53:56.166Z,19.05
2023-01-10T18:56:24.480Z,23.73
2023-01-10T18:58:52.697Z,31.25
2023-01-10T19:01:23.009Z,22.25
2023-01-10T19:03:51.680Z,18.52
2023-01-10T19:06:22.360Z,24.27
2023-01-10T19:08:51.181Z,19.00
2023-01-10T19:11:21.020Z,18.95
2023-01-10T19:13:53.456Z,19.52
2023-01-10T19:16:25.139Z,17.57
2023-01-10T19:19:00.985Z,19.42
2023-01-10T19:21:32.344Z,18.55
2023-01-10T19:24:04.648Z,19.55
2023-01-10T19:26:35.988Z,19.40
2023-01-10T19:29:04.796Z,14.07
2023-01-10T19:31:36.605Z,13.32
2023-01-10T19:34:07.968Z,13.95
2023-01-10T19:36:36.041Z,13.03
2023-01-10T19:39:06.782Z,10.72
2023-01-10T19:41:35.845Z,14.87
2023-01-10T19:44:08.777Z,14.30
2023-01-10T19:46:40.455Z,14.03
2023-01-10T19:49:09.339Z,14.55
2023-01-10T19:51:42.392Z,13.32
2023-01-10T19:54:13.338Z,14.00
2023-01-10T19:56:41.359Z,14.63
2023-01-10T19:59:13.441Z,13.70
2023-01-10T20:01:43.527Z,12.25
2023-01-10T20:04:17.025Z,14.98
2023-01-10T20:06:48.948Z,10.43
2023-01-10T20:09:17.160Z,9.70
2023-01-10T20:11:46.375Z,11.43
2023-01-10T20:14:19.635Z,8.45
2023-01-10T20:16:48.977Z,11.97
2023-01-10T20:19:18.239Z,10.18
2023-01-10T20:21:48.407Z,10.58
2023-01-10T20:24:20.540Z,9.10
2023-01-10T20:26:50.200Z,9.80
2023-01-10T20:29:19.164Z,6.90
2023-01-10T20:31:50.193Z,8.60
2023-01-10T20:34:22.512Z,6.58
2023-01-10T20:36:54.167Z,7.17
2023-01-10T20:39:27.302Z,11.00
2023-01-10T20:41:55.639Z,8.00
2023-01-10T20:44:25.604Z,9.70
2023-01-10T20:46:54.954Z,12.98
2023-01-10T20:49:25.761Z,7.92
2023-01-10T20:51:53.934Z,7.58
2023-01-10T20:54:25.248Z,6.42
2023-01-10T20:56:52.972Z,7.67
2023-01-10T20:59:21.737Z,7.55
2023-01-10T21:01:50.866Z,7.28
2023-01-10T21:04:18.794Z,7.37
2023-01-10T21:06:47.039Z,11.43
2023-01-10T21:09:16.204Z,9.43
2023-01-10T21:11:57.860Z,6.97
2023-01-10T21:14:14.383Z,5.83
2023-01-10T21:16:42.413Z,7.25
2023-01-10T21:19:12.309Z,6.55
2023-01-10T21:21:44.422Z,6.67
2023-01-10T21:24:12.680Z,7.55
2023-01-10T21:26:41.946Z,7.62
2023-01-10T21:29:12.818Z,6.67
2023-01-10T21:31:40.092Z,5.87
2023-01-10T21:34:08.158Z,4.95
2023-01-10T21:36:38.837Z,8.63
2023-01-10T21:39:08.001Z,5.83
2023-01-10T21:41:54.364Z,5.85
2023-01-10T21:44:22.676Z,5.10
2023-01-10T21:46:52.229Z,7.55
2023-01-10T21:49:20.865Z,7.08
2023-01-10T21:51:48.720Z,5.78
2023-01-10T21:54:20.064Z,16.30
2023-01-10T21:56:47.740Z,8.18
2023-01-10T21:59:18.598Z,9.93
2023-01-10T22:01:47.013Z,6.60
2023-01-10T22:04:17.326Z,8.10
2023-01-10T22:06:45.444Z,9.43
2023-01-10T22:09:13.109Z,13.53
2023-01-10T22:11:40.874Z,9.18
2023-01-10T22:14:10.441Z,7.45
2023-01-10T22:16:38.135Z,6.10
2023-01-10T22:19:06.151Z,6.25
2023-01-10T22:21:36.645Z,4.12
2023-01-10T22:24:06.495Z,4.03
2023-01-10T22:26:34.567Z,4.30
2023-01-10T22:29:03.827Z,4.78
2023-01-10T22:31:32.952Z,4.50
2023-01-10T22:34:00.694Z,5.75
2023-01-10T22:36:28.657Z,3.42
2023-01-10T22:38:56.430Z,4.55
2023-01-10T22:41:26.333Z,4.65
2023-01-10T22:43:55.368Z,5.58
2023-01-10T22:46:23.745Z,4.50
2023-01-10T22:48:52.378Z,4.70
2023-01-10T22:51:21.801Z,5.17
2023-01-10T22:53:58.793Z,4.80
2023-01-10T22:56:26.773Z,5.92
2023-01-10T22:58:57.286Z,4.12
2023-01-10T23:01:25.725Z,3.20
2023-01-10T23:03:53.421Z,3.75
2023-01-10T23:06:21.483Z,3.35
2023-01-10T23:08:50.111Z,3.60
2023-01-10T23:11:20.375Z,3.22
2023-01-10T23:13:48.353Z,7.08
2023-01-10T23:16:24.841Z,3.72
2023-01-10T23:18:52.732Z,3.95
2023-01-10T23:21:20.485Z,4.28
2023-01-10T23:23:48.527Z,4.05
2023-01-10T23:26:16.240Z,6.58
2023-01-10T23:28:47.895Z,3.47
2023-01-10T23:31:23.112Z,7.22
2023-01-10T23:36:19.648Z,4.97
2023-01-10T23:38:47.674Z,4.70
2023-01-10T23:41:15.839Z,3.80
2023-01-10T23:43:43.891Z,7.10
2023-01-10T23:46:13.272Z,4.33
2023-01-10T23:48:42.668Z,4.40
2023-01-10T23:51:10.983Z,4.67
2023-01-10T23:53:40.269Z,5.47
2023-01-10T23:56:14.247Z,4.17
2023-01-10T23:58:42.539Z,4.08
